Falmouth, United Kingdom
Current Conditions -  °F | °C
As of 8:50 PM on Thursday 18 Dec 2014 (Local Time) from EGDR Reporting Station
Drizzle Drizzle  
Wind Chill: 54°   Ceiling: 300
Heat Index: 54°   Visibility: 1.2mi
Dew Point: 52°   Wind: 22mph
Humidity: 94%   Direction: 240°WSW
Pressure: 29.97"   Gusts: 43mph
Location:  50.15°N, 5.07°W
Report Text: EGDR 182050Z 24019G37KT 2000 -DZ FEW001 SCT002 OVC003 12/11 Q1015 AMB
Loading
Personal Weather Stations






























Interactive Weather Map New forecast layout! Learn more

10-Day Weather Forecast

Advertisements
Track Severe Weather on mobile